Time,TemperatureF,DewpointF,PressureIn,WindDirection,WindDirectionDegrees,WindSpeedMPH,WindSpeedGustMPH,Humidity,HourlyPrecipIn,Conditions,Clouds,dailyrainin,SoftwareType,DateUTC
2013-01-24 00:00:00,36.1,24.8,29.60,South,180,10.0,11.0,63,0.00,,,0.00,meteohub,2013-01-24 05:00:00,
2013-01-24 00:05:00,36.3,25.7,29.59,South,180,21.0,21.0,65,0.00,,,0.00,meteohub,2013-01-24 05:05:00,
2013-01-24 00:08:00,36.9,26.2,29.60,North,0,2.0,11.0,65,0.00,,,0.00,meteohub,2013-01-24 05:08:00,
2013-01-24 00:14:00,37.0,26.4,29.59,North,0,5.0,21.0,65,0.00,,,0.00,meteohub,2013-01-24 05:14:00,
2013-01-24 00:16:00,37.0,26.4,29.59,SE,135,2.0,22.0,65,0.00,,,0.00,meteohub,2013-01-24 05:16:00,
2013-01-24 00:22:00,37.2,27.0,29.60,South,180,4.0,31.0,66,0.00,,,0.00,meteohub,2013-01-24 05:22:00,
2013-01-24 00:28:00,37.0,26.8,29.60,NW,315,11.0,31.0,66,0.00,,,0.00,meteohub,2013-01-24 05:28:00,
2013-01-24 00:34:00,37.2,27.0,29.60,South,180,4.0,31.0,66,0.00,,,0.00,meteohub,2013-01-24 05:34:00,
2013-01-24 00:41:00,37.2,27.0,29.60,SW,225,14.0,16.0,66,0.00,,,0.00,meteohub,2013-01-24 05:41:00,
2013-01-24 00:47:00,37.6,28.4,29.60,South,180,21.0,23.0,69,0.00,,,0.00,meteohub,2013-01-24 05:47:00,
2013-01-24 00:53:00,37.6,28.8,29.60,NW,315,15.0,23.0,70,0.00,,,0.00,meteohub,2013-01-24 05:53:00,
2013-01-24 00:59:00,37.8,28.9,29.60,SW,225,7.0,23.0,70,0.00,,,0.00,meteohub,2013-01-24 05:59:00,
2013-01-24 01:05:00,37.6,28.8,29.60,SW,225,10.0,21.0,70,0.00,,,0.00,meteohub,2013-01-24 06:05:00,
2013-01-24 01:11:00,37.8,28.6,29.59,East,90,5.0,21.0,69,0.00,,,0.00,meteohub,2013-01-24 06:11:00,
2013-01-24 01:17:00,37.6,28.4,29.59,SSW,203,8.0,17.0,69,0.00,,,0.00,meteohub,2013-01-24 06:17:00,
2013-01-24 01:22:00,37.6,28.4,29.59,South,180,15.0,17.0,69,0.00,,,0.00,meteohub,2013-01-24 06:22:00,
2013-01-24 01:28:00,37.6,28.4,29.58,NE,45,10.0,15.0,69,0.00,,,0.00,meteohub,2013-01-24 06:28:00,
2013-01-24 01:35:00,37.6,28.8,29.58,NE,45,8.0,25.0,70,0.00,,,0.00,meteohub,2013-01-24 06:35:00,
2013-01-24 01:41:00,37.6,28.8,29.58,South,180,21.0,25.0,70,0.00,,,0.00,meteohub,2013-01-24 06:41:00,
2013-01-24 01:47:00,37.4,28.6,29.59,East,90,7.0,22.0,70,0.00,,,0.00,meteohub,2013-01-24 06:47:00,
2013-01-24 01:53:00,37.4,28.6,29.58,South,180,10.0,22.0,70,0.00,,,0.00,meteohub,2013-01-24 06:53:00,
2013-01-24 01:59:00,37.2,27.0,29.58,South,180,9.0,21.0,66,0.00,,,0.00,meteohub,2013-01-24 06:59:00,
2013-01-24 02:06:00,37.2,27.0,29.57,East,90,10.0,15.0,66,0.00,,,0.00,meteohub,2013-01-24 07:06:00,
2013-01-24 02:12:00,37.2,27.0,29.57,SSW,203,18.0,18.0,66,0.00,,,0.00,meteohub,2013-01-24 07:12:00,
2013-01-24 02:18:00,37.4,28.2,29.58,SW,225,8.0,18.0,69,0.00,,,0.00,meteohub,2013-01-24 07:18:00,
2013-01-24 02:24:00,37.0,26.4,29.58,South,180,11.0,18.0,65,0.00,,,0.00,meteohub,2013-01-24 07:24:00,
2013-01-24 02:31:00,36.9,26.2,29.58,South,180,9.0,15.0,65,0.00,,,0.00,meteohub,2013-01-24 07:31:00,
2013-01-24 02:37:00,37.0,26.8,29.58,SW,225,4.0,11.0,66,0.00,,,0.00,meteohub,2013-01-24 07:37:00,
2013-01-24 02:43:00,36.9,26.2,29.58,NW,315,2.0,16.0,65,0.00,,,0.00,meteohub,2013-01-24 07:43:00,
2013-01-24 02:49:00,36.7,26.4,29.57,South,180,12.0,16.0,66,0.00,,,0.00,meteohub,2013-01-24 07:49:00,
2013-01-24 02:55:00,36.7,26.4,29.57,SSW,203,9.0,12.0,66,0.00,,,0.00,meteohub,2013-01-24 07:55:00,
2013-01-24 03:02:00,36.5,26.2,29.57,NNE,23,20.0,20.0,66,0.00,,,0.00,meteohub,2013-01-24 08:02:00,
2013-01-24 03:08:00,36.7,26.4,29.57,NW,315,5.0,20.0,66,0.00,,,0.00,meteohub,2013-01-24 08:08:00,
2013-01-24 03:14:00,36.3,26.4,29.57,North,0,5.0,20.0,67,0.00,,,0.00,meteohub,2013-01-24 08:14:00,
2013-01-24 03:20:00,36.0,26.1,29.57,NW,315,5.0,12.0,67,0.00,,,0.00,meteohub,2013-01-24 08:20:00,
2013-01-24 03:26:00,36.3,26.4,29.57,WNW,293,10.0,15.0,67,0.00,,,0.00,meteohub,2013-01-24 08:26:00,
2013-01-24 03:32:00,36.3,26.1,29.57,South,180,4.0,15.0,66,0.00,,,0.00,meteohub,2013-01-24 08:32:00,
2013-01-24 03:37:00,36.1,25.9,29.57,NE,45,6.0,15.0,66,0.00,,,0.00,meteohub,2013-01-24 08:37:00,
2013-01-24 03:44:00,35.8,25.5,29.57,SE,135,9.0,10.0,66,0.00,,,0.00,meteohub,2013-01-24 08:44:00,
2013-01-24 03:50:00,35.8,25.2,29.56,East,90,2.0,6.0,65,0.00,,,0.00,meteohub,2013-01-24 08:50:00,
2013-01-24 03:56:00,35.6,25.0,29.57,North,0,7.0,10.0,65,0.00,,,0.00,meteohub,2013-01-24 08:56:00,
2013-01-24 04:03:00,35.6,25.3,29.56,NNE,23,4.0,10.0,66,0.00,,,0.00,meteohub,2013-01-24 09:03:00,
2013-01-24 04:09:00,35.4,25.5,29.57,WSW,248,3.0,8.0,67,0.00,,,0.00,meteohub,2013-01-24 09:09:00,
2013-01-24 04:14:00,35.4,25.9,29.57,SW,225,6.0,8.0,68,0.00,,,0.00,meteohub,2013-01-24 09:14:00,
2013-01-24 04:20:00,35.4,25.9,29.56,SW,225,6.0,11.0,68,0.00,,,0.00,meteohub,2013-01-24 09:20:00,
2013-01-24 04:26:00,35.2,25.3,29.57,NE,45,2.0,11.0,67,0.00,,,0.00,meteohub,2013-01-24 09:26:00,
2013-01-24 04:32:00,35.6,25.0,29.57,SSE,158,4.0,12.0,65,0.00,,,0.00,meteohub,2013-01-24 09:32:00,
2013-01-24 04:37:00,35.8,24.8,29.57,NE,45,12.0,12.0,64,0.00,,,0.00,meteohub,2013-01-24 09:37:00,
2013-01-24 04:43:00,36.5,24.3,29.57,NE,45,2.0,8.0,61,0.00,,,0.00,meteohub,2013-01-24 09:43:00,
2013-01-24 04:49:00,36.3,24.1,29.57,NE,45,11.0,15.0,61,0.00,,,0.00,meteohub,2013-01-24 09:49:00,
2013-01-24 04:56:00,36.3,23.7,29.57,North,0,2.0,15.0,60,0.00,,,0.00,meteohub,2013-01-24 09:56:00,
2013-01-24 05:02:00,36.5,23.9,29.57,NE,45,4.0,11.0,60,0.00,,,0.00,meteohub,2013-01-24 10:02:00,
2013-01-24 05:08:00,36.3,23.7,29.57,East,90,2.0,11.0,60,0.00,,,0.00,meteohub,2013-01-24 10:08:00,
2013-01-24 05:14:00,36.3,23.7,29.57,NE,45,4.0,15.0,60,0.00,,,0.00,meteohub,2013-01-24 10:14:00,
2013-01-24 05:20:00,36.3,23.7,29.57,NE,45,2.0,20.0,60,0.00,,,0.00,meteohub,2013-01-24 10:20:00,
2013-01-24 05:26:00,35.8,23.2,29.57,SE,135,13.0,20.0,60,0.00,,,0.00,meteohub,2013-01-24 10:26:00,
2013-01-24 05:32:00,35.8,23.7,29.57,SE,135,5.0,14.0,61,0.00,,,0.00,meteohub,2013-01-24 10:32:00,
2013-01-24 05:37:00,35.6,23.0,29.58,North,0,9.0,14.0,60,0.00,,,0.00,meteohub,2013-01-24 10:37:00,
2013-01-24 05:44:00,35.4,23.4,29.57,South,180,14.0,19.0,61,0.00,,,0.00,meteohub,2013-01-24 10:44:00,
2013-01-24 05:50:00,35.4,23.4,29.57,North,0,3.0,19.0,61,0.00,,,0.00,meteohub,2013-01-24 10:50:00,
2013-01-24 05:56:00,35.1,23.0,29.57,South,180,7.0,19.0,61,0.00,,,0.00,meteohub,2013-01-24 10:56:00,
2013-01-24 06:02:00,34.7,22.6,29.57,SW,225,15.0,17.0,61,0.00,,,0.00,meteohub,2013-01-24 11:02:00,
2013-01-24 06:07:00,34.5,22.5,29.58,SW,225,8.0,17.0,61,0.00,,,0.00,meteohub,2013-01-24 11:07:00,
2013-01-24 06:14:00,34.5,22.5,29.59,SE,135,5.0,15.0,61,0.00,,,0.00,meteohub,2013-01-24 11:14:00,
2013-01-24 06:20:00,34.5,22.1,29.58,West,270,13.0,13.0,60,0.00,,,0.00,meteohub,2013-01-24 11:20:00,
2013-01-24 06:26:00,34.9,21.6,29.59,NE,45,3.0,9.0,58,0.00,,,0.00,meteohub,2013-01-24 11:26:00,
2013-01-24 06:32:00,34.9,20.8,29.58,NW,315,13.0,15.0,56,0.00,,,0.00,meteohub,2013-01-24 11:32:00,
2013-01-24 06:37:00,35.2,20.7,29.59,SE,135,11.0,15.0,55,0.00,,,0.00,meteohub,2013-01-24 11:37:00,
2013-01-24 06:43:00,35.1,19.6,29.59,South,180,4.0,18.0,53,0.00,,,0.00,meteohub,2013-01-24 11:43:00,
2013-01-24 06:49:00,35.1,19.6,29.59,East,90,2.0,18.0,53,0.00,,,0.00,meteohub,2013-01-24 11:49:00,
2013-01-24 06:55:00,34.9,19.4,29.59,SE,135,17.0,18.0,53,0.00,,,0.00,meteohub,2013-01-24 11:55:00,
2013-01-24 07:01:00,35.1,19.6,29.59,SW,225,11.0,19.0,53,0.00,,,0.00,meteohub,2013-01-24 12:01:00,
2013-01-24 07:08:00,34.7,19.4,29.60,South,180,15.0,19.0,53,0.00,,,0.00,meteohub,2013-01-24 12:08:00,
2013-01-24 07:14:00,34.9,19.0,29.60,South,180,5.0,19.0,52,0.00,,,0.00,meteohub,2013-01-24 12:14:00,
2013-01-24 07:20:00,34.5,18.7,29.59,South,180,15.0,15.0,52,0.00,,,0.00,meteohub,2013-01-24 12:20:00,
2013-01-24 07:26:00,34.7,18.5,29.59,South,180,17.0,17.0,51,0.00,,,0.00,meteohub,2013-01-24 12:26:00,
2013-01-24 07:32:00,34.7,18.5,29.59,South,180,14.0,17.0,51,0.00,,,0.00,meteohub,2013-01-24 12:32:00,
2013-01-24 07:37:00,34.7,18.0,29.60,NE,45,7.0,17.0,50,0.00,,,0.00,meteohub,2013-01-24 12:37:00,
2013-01-24 07:44:00,34.5,17.8,29.60,SW,225,14.0,18.0,50,0.00,,,0.00,meteohub,2013-01-24 12:44:00,
2013-01-24 07:50:00,34.2,17.4,29.61,SW,225,11.0,18.0,50,0.00,,,0.00,meteohub,2013-01-24 12:50:00,
2013-01-24 07:56:00,34.0,17.2,29.61,South,180,15.0,17.0,50,0.00,,,0.00,meteohub,2013-01-24 12:56:00,
2013-01-24 08:02:00,34.0,17.2,29.61,WNW,293,10.0,17.0,50,0.00,,,0.00,meteohub,2013-01-24 13:02:00,
2013-01-24 08:07:00,33.6,16.9,29.61,East,90,15.0,15.0,50,0.00,,,0.00,meteohub,2013-01-24 13:07:00,
2013-01-24 08:13:00,33.6,16.9,29.62,SW,225,4.0,15.0,50,0.00,,,0.00,meteohub,2013-01-24 13:13:00,
2013-01-24 08:19:00,33.4,16.3,29.62,NNE,23,11.0,21.0,49,0.00,,,0.00,meteohub,2013-01-24 13:19:00,
2013-01-24 08:25:00,33.6,15.6,29.62,East,90,5.0,22.0,47,0.00,,,0.00,meteohub,2013-01-24 13:25:00,
2013-01-24 08:32:00,33.3,15.3,29.62,NE,45,11.0,22.0,47,0.00,,,0.00,meteohub,2013-01-24 13:32:00,
2013-01-24 08:38:00,33.1,14.0,29.62,South,180,8.0,22.0,45,0.00,,,0.00,meteohub,2013-01-24 13:38:00,
2013-01-24 08:44:00,32.9,13.8,29.62,West,270,2.0,19.0,45,0.00,,,0.00,meteohub,2013-01-24 13:44:00,
2013-01-24 08:50:00,32.9,12.9,29.63,NW,315,5.0,18.0,43,0.00,,,0.00,meteohub,2013-01-24 13:50:00,
2013-01-24 08:56:00,32.9,11.8,29.63,NW,315,7.0,14.0,41,0.00,,,0.00,meteohub,2013-01-24 13:56:00,
2013-01-24 09:02:00,32.9,11.3,29.63,North,0,3.0,14.0,40,0.00,,,0.00,meteohub,2013-01-24 14:02:00,
2013-01-24 09:07:00,32.9,8.2,29.63,South,180,4.0,14.0,35,0.00,,,0.00,meteohub,2013-01-24 14:07:00,
2013-01-24 09:13:00,32.9,6.3,29.64,NE,45,4.0,13.0,32,0.00,,,0.00,meteohub,2013-01-24 14:13:00,
2013-01-24 09:19:00,33.1,5.0,29.64,East,90,9.0,14.0,30,0.00,,,0.00,meteohub,2013-01-24 14:19:00,
2013-01-24 09:26:00,33.4,1.4,29.64,South,180,4.0,14.0,25,0.00,,,0.00,meteohub,2013-01-24 14:26:00,
2013-01-24 09:32:00,33.6,-0.2,29.65,East,90,8.0,13.0,23,0.00,,,0.00,meteohub,2013-01-24 14:32:00,
2013-01-24 09:38:00,33.8,-2.0,29.65,West,270,8.0,13.0,21,0.00,,,0.00,meteohub,2013-01-24 14:38:00,
2013-01-24 09:44:00,34.2,-3.8,29.64,NW,315,7.0,13.0,19,0.00,,,0.00,meteohub,2013-01-24 14:44:00,
2013-01-24 09:50:00,34.7,-3.5,29.65,NE,45,4.0,16.0,19,0.00,,,0.00,meteohub,2013-01-24 14:50:00,
2013-01-24 09:57:00,34.5,-4.7,29.65,NW,315,11.0,16.0,18,0.00,,,0.00,meteohub,2013-01-24 14:57:00,
2013-01-24 10:02:00,34.5,-4.7,29.65,SE,135,8.0,16.0,18,0.00,,,0.00,meteohub,2013-01-24 15:02:00,
2013-01-24 10:08:00,35.4,-5.1,29.66,South,180,10.0,15.0,17,0.00,,,0.00,meteohub,2013-01-24 15:08:00,
2013-01-24 10:14:00,35.8,-6.0,29.65,NE,45,14.0,16.0,16,0.00,,,0.00,meteohub,2013-01-24 15:14:00,
2013-01-24 10:20:00,36.5,-6.9,29.65,East,90,13.0,17.0,15,0.00,,,0.00,meteohub,2013-01-24 15:20:00,
2013-01-24 10:26:00,37.0,-3.8,29.65,NW,315,11.0,19.0,17,0.00,,,0.00,meteohub,2013-01-24 15:26:00,
2013-01-24 10:32:00,37.2,-3.6,29.65,East,90,4.0,19.0,17,0.00,,,0.00,meteohub,2013-01-24 15:32:00,
2013-01-24 10:37:00,37.2,-3.6,29.65,North,0,15.0,15.0,17,0.00,,,0.00,meteohub,2013-01-24 15:37:00,
2013-01-24 10:43:00,37.8,0.3,29.66,NE,45,7.0,15.0,20,0.00,,,0.00,meteohub,2013-01-24 15:43:00,
2013-01-24 10:49:00,39.7,0.9,29.67,South,180,5.0,15.0,19,0.00,,,0.00,meteohub,2013-01-24 15:49:00,
2013-01-24 10:56:00,41.7,0.1,29.66,NE,45,4.0,11.0,17,0.00,,,0.00,meteohub,2013-01-24 15:56:00,
2013-01-24 11:02:00,42.1,0.3,29.67,NE,45,4.0,13.0,17,0.00,,,0.00,meteohub,2013-01-24 16:02:00,
2013-01-24 11:08:00,43.0,-0.2,29.68,SSE,158,2.0,13.0,16,0.00,,,0.00,meteohub,2013-01-24 16:08:00,
2013-01-24 11:14:00,41.9,0.3,29.67,SW,225,4.0,13.0,17,0.00,,,0.00,meteohub,2013-01-24 16:14:00,
2013-01-24 11:20:00,42.6,0.9,29.67,North,0,5.0,13.0,17,0.00,,,0.00,meteohub,2013-01-24 16:20:00,
2013-01-24 11:26:00,42.4,0.7,29.67,South,180,10.0,11.0,17,0.00,,,0.00,meteohub,2013-01-24 16:26:00,
2013-01-24 11:32:00,41.5,0.0,29.68,SW,225,10.0,12.0,17,0.00,,,0.00,meteohub,2013-01-24 16:32:00,
2013-01-24 11:37:00,41.0,-0.6,29.68,SW,225,12.0,14.0,17,0.00,,,0.00,meteohub,2013-01-24 16:37:00,
2013-01-24 11:44:00,41.5,0.0,29.68,WNW,293,9.0,15.0,17,0.00,,,0.00,meteohub,2013-01-24 16:44:00,
2013-01-24 11:50:00,41.0,-0.6,29.68,SE,135,2.0,15.0,17,0.00,,,0.00,meteohub,2013-01-24 16:50:00,
2013-01-24 11:56:00,41.9,0.3,29.68,NE,45,5.0,15.0,17,0.00,,,0.00,meteohub,2013-01-24 16:56:00,
2013-01-24 12:02:00,41.7,0.1,29.68,South,180,11.0,15.0,17,0.00,,,0.00,meteohub,2013-01-24 17:02:00,
2013-01-24 12:07:00,39.2,-0.8,29.68,South,180,16.0,23.0,18,0.00,,,0.00,meteohub,2013-01-24 17:07:00,
2013-01-24 12:13:00,39.0,1.4,29.67,SW,225,12.0,23.0,20,0.00,,,0.00,meteohub,2013-01-24 17:13:00,
2013-01-24 12:19:00,39.7,-0.4,29.68,NE,45,8.0,23.0,18,0.00,,,0.00,meteohub,2013-01-24 17:19:00,
2013-01-24 12:26:00,40.8,0.5,29.68,NE,45,13.0,21.0,18,0.00,,,0.00,meteohub,2013-01-24 17:26:00,
2013-01-24 12:32:00,41.9,0.3,29.68,SW,225,11.0,21.0,17,0.00,,,0.00,meteohub,2013-01-24 17:32:00,
2013-01-24 12:37:00,41.5,0.0,29.68,South,180,11.0,17.0,17,0.00,,,0.00,meteohub,2013-01-24 17:37:00,
2013-01-24 12:43:00,41.4,-0.2,29.68,NE,45,4.0,17.0,17,0.00,,,0.00,meteohub,2013-01-24 17:43:00,
2013-01-24 12:48:00,41.5,0.0,29.68,North,0,7.0,20.0,17,0.00,,,0.00,meteohub,2013-01-24 17:48:00,
2013-01-24 12:54:00,41.4,-0.2,29.67,East,90,2.0,20.0,17,0.00,,,0.00,meteohub,2013-01-24 17:54:00,
2013-01-24 13:00:00,41.0,-0.6,29.68,NW,315,5.0,9.0,17,0.00,,,0.00,meteohub,2013-01-24 18:00:00,
2013-01-24 13:06:00,41.4,-0.2,29.68,SSW,203,19.0,19.0,17,0.00,,,0.00,meteohub,2013-01-24 18:06:00,
2013-01-24 13:12:00,40.3,0.1,29.68,SW,225,21.0,21.0,18,0.00,,,0.00,meteohub,2013-01-24 18:12:00,
2013-01-24 13:19:00,40.5,0.3,29.69,SE,135,8.0,22.0,18,0.00,,,0.00,meteohub,2013-01-24 18:19:00,
2013-01-24 13:25:00,41.5,0.0,29.69,North,0,5.0,22.0,17,0.00,,,0.00,meteohub,2013-01-24 18:25:00,
2013-01-24 13:31:00,42.6,0.9,29.68,SW,225,16.0,16.0,17,0.00,,,0.00,meteohub,2013-01-24 18:31:00,
2013-01-24 13:37:00,43.2,0.0,29.68,SW,225,5.0,20.0,16,0.00,,,0.00,meteohub,2013-01-24 18:37:00,
2013-01-24 13:43:00,44.6,-0.2,29.68,South,180,19.0,20.0,15,0.00,,,0.00,meteohub,2013-01-24 18:43:00,
2013-01-24 13:50:00,45.9,0.9,29.68,East,90,3.0,20.0,15,0.00,,,0.00,meteohub,2013-01-24 18:50:00,
2013-01-24 13:56:00,46.6,5.4,29.68,South,180,11.0,19.0,18,0.00,,,0.00,meteohub,2013-01-24 18:56:00,
2013-01-24 14:02:00,45.1,0.1,29.68,West,270,16.0,16.0,15,0.00,,,0.00,meteohub,2013-01-24 19:02:00,
2013-01-24 14:07:00,43.7,0.5,29.68,NNE,23,6.0,16.0,16,0.00,,,0.00,meteohub,2013-01-24 19:07:00,
2013-01-24 14:13:00,44.4,1.0,29.68,East,90,2.0,17.0,16,0.00,,,0.00,meteohub,2013-01-24 19:13:00,
2013-01-24 14:19:00,44.4,1.0,29.67,SW,225,10.0,17.0,16,0.00,,,0.00,meteohub,2013-01-24 19:19:00,
2013-01-24 14:25:00,43.2,0.0,29.68,SW,225,12.0,21.0,16,0.00,,,0.00,meteohub,2013-01-24 19:25:00,
2013-01-24 14:32:00,44.1,0.7,29.68,NW,315,9.0,21.0,16,0.00,,,0.00,meteohub,2013-01-24 19:32:00,
2013-01-24 14:38:00,43.3,0.1,29.68,NE,45,2.0,21.0,16,0.00,,,0.00,meteohub,2013-01-24 19:38:00,
2013-01-24 14:44:00,44.8,0.0,29.68,SW,225,15.0,17.0,15,0.00,,,0.00,meteohub,2013-01-24 19:44:00,
2013-01-24 14:50:00,45.9,0.9,29.69,NE,45,4.0,17.0,15,0.00,,,0.00,meteohub,2013-01-24 19:50:00,
2013-01-24 14:57:00,46.4,5.2,29.69,South,180,2.0,17.0,18,0.00,,,0.00,meteohub,2013-01-24 19:57:00,
2013-01-24 15:02:00,46.4,5.2,29.68,South,180,5.0,7.0,18,0.00,,,0.00,meteohub,2013-01-24 20:02:00,
2013-01-24 15:07:00,46.9,4.5,29.69,North,0,2.0,8.0,17,0.00,,,0.00,meteohub,2013-01-24 20:07:00,
2013-01-24 15:12:00,46.8,5.5,29.68,North,0,2.0,8.0,18,0.00,,,0.00,meteohub,2013-01-24 20:12:00,
2013-01-24 15:19:00,47.1,4.5,29.68,South,180,8.0,8.0,17,0.00,,,0.00,meteohub,2013-01-24 20:19:00,
2013-01-24 15:25:00,46.6,5.4,29.69,South,180,2.0,8.0,18,0.00,,,0.00,meteohub,2013-01-24 20:25:00,
2013-01-24 15:30:00,47.5,6.1,29.70,East,90,2.0,8.0,18,0.00,,,0.00,meteohub,2013-01-24 20:30:00,
2013-01-24 15:36:00,47.8,6.4,29.70,SW,225,11.0,11.0,18,0.00,,,0.00,meteohub,2013-01-24 20:36:00,
2013-01-24 15:42:00,45.9,0.9,29.70,SW,225,5.0,11.0,15,0.00,,,0.00,meteohub,2013-01-24 20:42:00,
2013-01-24 15:48:00,46.0,0.9,29.70,NE,45,2.0,11.0,15,0.00,,,0.00,meteohub,2013-01-24 20:48:00,
2013-01-24 15:55:00,46.8,5.5,29.70,South,180,2.0,11.0,18,0.00,,,0.00,meteohub,2013-01-24 20:55:00,
2013-01-24 16:01:00,46.6,5.4,29.71,SW,225,3.0,5.0,18,0.00,,,0.00,meteohub,2013-01-24 21:01:00,
2013-01-24 16:07:00,44.6,-0.2,29.70,NE,45,1.0,8.0,15,0.00,,,0.00,meteohub,2013-01-24 21:07:00,
2013-01-24 16:13:00,43.3,0.1,29.70,South,180,2.0,8.0,16,0.00,,,0.00,meteohub,2013-01-24 21:13:00,
2013-01-24 16:19:00,42.1,0.3,29.70,SE,135,2.0,8.0,17,0.00,,,0.00,meteohub,2013-01-24 21:19:00,
2013-01-24 16:26:00,41.7,0.1,29.70,South,180,4.0,4.0,17,0.00,,,0.00,meteohub,2013-01-24 21:26:00,
2013-01-24 16:32:00,40.1,0.0,29.71,NE,45,2.0,12.0,18,0.00,,,0.00,meteohub,2013-01-24 21:32:00,
2013-01-24 16:37:00,39.9,-0.2,29.72,SW,225,5.0,12.0,18,0.00,,,0.00,meteohub,2013-01-24 21:37:00,
2013-01-24 16:43:00,39.2,-0.8,29.72,NE,45,3.0,12.0,18,0.00,,,0.00,meteohub,2013-01-24 21:43:00,
2013-01-24 16:49:00,39.2,-0.8,29.72,NE,45,2.0,11.0,18,0.00,,,0.00,meteohub,2013-01-24 21:49:00,
2013-01-24 16:55:00,38.7,0.0,29.72,South,180,2.0,6.0,19,0.00,,,0.00,meteohub,2013-01-24 21:55:00,
2013-01-24 17:01:00,38.3,-0.4,29.72,South,180,4.0,4.0,19,0.00,,,0.00,meteohub,2013-01-24 22:01:00,
2013-01-24 17:08:00,37.8,-0.8,29.72,South,180,4.0,5.0,19,0.00,,,0.00,meteohub,2013-01-24 22:08:00,
2013-01-24 17:14:00,37.4,0.0,29.72,South,180,3.0,7.0,20,0.00,,,0.00,meteohub,2013-01-24 22:14:00,
2013-01-24 17:20:00,36.9,-5.1,29.72,SW,225,2.0,7.0,16,0.00,,,0.00,meteohub,2013-01-24 22:20:00,
2013-01-24 17:26:00,36.1,-5.8,29.73,SW,225,1.0,5.0,16,0.00,,,0.00,meteohub,2013-01-24 22:26:00,
2013-01-24 17:32:00,35.6,-4.9,29.73,SW,225,1.0,3.0,17,0.00,,,0.00,meteohub,2013-01-24 22:32:00,
2013-01-24 17:37:00,34.9,-4.4,29.73,SE,135,1.0,2.0,18,0.00,,,0.00,meteohub,2013-01-24 22:37:00,
2013-01-24 17:44:00,33.8,-6.3,29.73,NE,45,0.0,2.0,17,0.00,,,0.00,meteohub,2013-01-24 22:44:00,
2013-01-24 17:50:00,33.1,-5.8,29.73,NE,45,0.0,2.0,18,0.00,,,0.00,meteohub,2013-01-24 22:50:00,
2013-01-24 17:56:00,32.7,-6.2,29.73,NE,45,1.0,2.0,18,0.00,,,0.00,meteohub,2013-01-24 22:56:00,
2013-01-24 18:02:00,32.0,-5.6,29.73,SE,135,0.0,2.0,19,0.00,,,0.00,meteohub,2013-01-24 23:02:00,
2013-01-24 18:07:00,32.0,-5.6,29.73,SW,225,1.0,2.0,19,0.00,,,0.00,meteohub,2013-01-24 23:07:00,
2013-01-24 18:13:00,30.4,-4.9,29.74,NE,45,0.0,1.0,21,0.00,,,0.00,meteohub,2013-01-24 23:13:00,
2013-01-24 18:19:00,30.0,-5.3,29.74,NE,45,3.0,3.0,21,0.00,,,0.00,meteohub,2013-01-24 23:19:00,
2013-01-24 18:25:00,30.2,-5.1,29.75,NE,45,2.0,4.0,21,0.00,,,0.00,meteohub,2013-01-24 23:25:00,
2013-01-24 18:31:00,30.0,-4.2,29.75,NE,45,0.0,4.0,22,0.00,,,0.00,meteohub,2013-01-24 23:31:00,
2013-01-24 18:32:00,29.8,-4.4,29.75,NE,45,0.0,4.0,22,0.00,,,0.00,meteohub,2013-01-24 23:32:00,
2013-01-24 18:37:00,29.1,-5.1,29.75,West,270,0.0,2.0,22,0.00,,,0.00,meteohub,2013-01-24 23:37:00,
2013-01-24 18:43:00,28.2,-9.9,29.75,East,90,0.0,2.0,18,0.00,,,0.00,meteohub,2013-01-24 23:43:00,
2013-01-24 18:49:00,27.9,-10.1,29.75,East,90,0.0,0.0,18,0.00,,,0.00,meteohub,2013-01-24 23:49:00,
2013-01-24 18:56:00,27.0,-8.9,29.76,North,0,0.0,0.0,20,0.00,,,0.00,meteohub,2013-01-24 23:56:00,
2013-01-24 19:02:00,26.2,-6.5,29.76,South,180,0.0,0.0,23,0.00,,,0.00,meteohub,2013-01-25 00:02:00,
2013-01-24 19:08:00,26.1,-5.8,29.75,East,90,0.0,0.0,24,0.00,,,0.00,meteohub,2013-01-25 00:08:00,
2013-01-24 19:14:00,25.9,-6.9,29.75,South,180,1.0,0.0,23,0.00,,,0.00,meteohub,2013-01-25 00:14:00,
2013-01-24 19:20:00,25.9,-3.5,29.76,SE,135,4.0,4.0,27,0.00,,,0.00,meteohub,2013-01-25 00:20:00,
2013-01-24 19:26:00,26.4,-3.1,29.76,East,90,1.0,4.0,27,0.00,,,0.00,meteohub,2013-01-25 00:26:00,
2013-01-24 19:32:00,26.6,-5.3,29.76,South,180,4.0,4.0,24,0.00,,,0.00,meteohub,2013-01-25 00:32:00,
2013-01-24 19:38:00,26.8,-4.4,29.76,NE,45,0.0,4.0,25,0.00,,,0.00,meteohub,2013-01-25 00:38:00,
2013-01-24 19:44:00,26.6,-3.6,29.77,NE,45,2.0,4.0,26,0.00,,,0.00,meteohub,2013-01-25 00:44:00,
2013-01-24 19:50:00,26.2,-3.3,29.77,East,90,1.0,4.0,27,0.00,,,0.00,meteohub,2013-01-25 00:50:00,
2013-01-24 19:58:00,26.2,-3.3,29.77,SE,135,1.0,2.0,27,0.00,,,0.00,meteohub,2013-01-25 00:58:00,
2013-01-24 20:04:00,25.9,-3.5,29.76,North,0,0.0,2.0,27,0.00,,,0.00,meteohub,2013-01-25 01:04:00,
2013-01-24 20:11:00,25.2,-4.9,29.77,NE,45,0.0,2.0,26,0.00,,,0.00,meteohub,2013-01-25 01:11:00,
2013-01-24 20:17:00,24.8,-2.9,29.77,NE,45,0.0,0.0,29,0.00,,,0.00,meteohub,2013-01-25 01:17:00,
2013-01-24 20:23:00,24.8,-2.9,29.77,NE,45,0.0,0.0,29,0.00,,,0.00,meteohub,2013-01-25 01:23:00,
2013-01-24 20:29:00,24.6,-1.7,29.78,SW,225,1.0,0.0,31,0.00,,,0.00,meteohub,2013-01-25 01:29:00,
2013-01-24 20:35:00,24.4,0.1,29.78,East,90,0.0,2.0,34,0.00,,,0.00,meteohub,2013-01-25 01:35:00,
2013-01-24 20:41:00,24.1,3.2,29.78,North,0,0.0,2.0,40,0.00,,,0.00,meteohub,2013-01-25 01:41:00,
2013-01-24 20:47:00,24.1,1.6,29.77,NE,45,0.0,0.0,37,0.00,,,0.00,meteohub,2013-01-25 01:47:00,
2013-01-24 20:52:00,24.1,2.1,29.78,South,180,2.0,0.0,38,0.00,,,0.00,meteohub,2013-01-25 01:52:00,
2013-01-24 20:59:00,24.1,3.2,29.77,NE,45,0.0,2.0,40,0.00,,,0.00,meteohub,2013-01-25 01:59:00,
2013-01-24 21:05:00,24.1,3.2,29.78,NE,45,0.0,2.0,40,0.00,,,0.00,meteohub,2013-01-25 02:05:00,
2013-01-24 21:11:00,23.5,3.4,29.78,South,180,1.0,1.0,41,0.00,,,0.00,meteohub,2013-01-25 02:11:00,
2013-01-24 21:17:00,23.7,3.9,29.78,NE,45,0.0,1.0,42,0.00,,,0.00,meteohub,2013-01-25 02:17:00,
2013-01-24 21:22:00,23.7,5.0,29.78,North,0,0.0,1.0,44,0.00,,,0.00,meteohub,2013-01-25 02:22:00,
2013-01-24 21:28:00,23.7,3.9,29.78,South,180,2.0,2.0,42,0.00,,,0.00,meteohub,2013-01-25 02:28:00,
2013-01-24 21:34:00,23.5,4.3,29.79,SE,135,0.0,2.0,43,0.00,,,0.00,meteohub,2013-01-25 02:34:00,
2013-01-24 21:43:00,23.0,4.3,29.79,North,0,0.0,2.0,44,0.00,,,0.00,meteohub,2013-01-25 02:43:00,
2013-01-24 21:48:00,22.3,4.6,29.79,North,0,1.0,1.0,46,0.00,,,0.00,meteohub,2013-01-25 02:48:00,
2013-01-24 21:54:00,22.1,5.4,29.79,South,180,2.0,2.0,48,0.00,,,0.00,meteohub,2013-01-25 02:54:00,
2013-01-24 22:01:00,22.5,5.4,29.78,East,90,0.0,2.0,47,0.00,,,0.00,meteohub,2013-01-25 03:01:00,
2013-01-24 22:07:00,22.6,5.0,29.78,North,0,0.0,2.0,46,0.00,,,0.00,meteohub,2013-01-25 03:07:00,
2013-01-24 22:13:00,22.5,4.3,29.77,SE,135,0.0,0.0,45,0.00,,,0.00,meteohub,2013-01-25 03:13:00,
2013-01-24 22:19:00,22.3,4.6,29.78,East,90,0.0,0.0,46,0.00,,,0.00,meteohub,2013-01-25 03:19:00,
2013-01-24 22:25:00,22.1,5.9,29.78,South,180,1.0,3.0,49,0.00,,,0.00,meteohub,2013-01-25 03:25:00,
2013-01-24 22:31:00,21.7,5.9,29.78,East,90,0.0,3.0,50,0.00,,,0.00,meteohub,2013-01-25 03:31:00,
2013-01-24 22:38:00,21.7,6.4,29.78,NE,45,0.0,3.0,51,0.00,,,0.00,meteohub,2013-01-25 03:38:00,
2013-01-24 22:44:00,21.9,6.6,29.78,NE,45,0.0,2.0,51,0.00,,,0.00,meteohub,2013-01-25 03:44:00,
2013-01-24 22:50:00,21.6,6.6,29.78,North,0,0.0,2.0,52,0.00,,,0.00,meteohub,2013-01-25 03:50:00,
2013-01-24 22:56:00,21.6,6.6,29.78,South,180,0.0,2.0,52,0.00,,,0.00,meteohub,2013-01-25 03:56:00,
2013-01-24 23:02:00,21.4,6.1,29.79,NE,45,1.0,2.0,51,0.00,,,0.00,meteohub,2013-01-25 04:02:00,
2013-01-24 23:07:00,21.4,6.1,29.79,NE,45,1.0,1.0,51,0.00,,,0.00,meteohub,2013-01-25 04:07:00,
2013-01-24 23:13:00,21.6,6.3,29.79,NE,45,2.0,2.0,51,0.00,,,0.00,meteohub,2013-01-25 04:13:00,
2013-01-24 23:19:00,22.1,6.8,29.79,NW,315,1.0,3.0,51,0.00,,,0.00,meteohub,2013-01-25 04:19:00,
2013-01-24 23:25:00,22.8,7.9,29.79,NE,45,2.0,3.0,52,0.00,,,0.00,meteohub,2013-01-25 04:25:00,
2013-01-24 23:31:00,23.9,6.6,29.79,NE,45,0.0,3.0,47,0.00,,,0.00,meteohub,2013-01-25 04:31:00,
2013-01-24 23:37:00,24.3,5.9,29.79,North,0,4.0,4.0,45,0.00,,,0.00,meteohub,2013-01-25 04:37:00,
2013-01-24 23:43:00,25.2,5.4,29.80,SE,135,3.0,4.0,42,0.00,,,0.00,meteohub,2013-01-25 04:43:00,
2013-01-24 23:50:00,25.0,5.2,29.80,North,0,2.0,4.0,42,0.00,,,0.00,meteohub,2013-01-25 04:50:00,
2013-01-24 23:56:00,24.3,5.5,29.79,East,90,3.0,4.0,44,0.00,,,0.00,meteohub,2013-01-25 04:56:00,